createdAt,value
2022-11-11T00:02:27.855Z,9.09
2022-11-11T00:05:13.476Z,9.00
2022-11-11T00:08:02.254Z,9.06
2022-11-11T00:10:47.631Z,9.38
2022-11-11T00:13:34.231Z,9.29
2022-11-11T00:16:20.800Z,8.99
2022-11-11T00:19:24.990Z,8.93
2022-11-11T00:22:38.603Z,9.24
2022-11-11T00:25:24.057Z,9.45
2022-11-11T00:28:09.856Z,9.32
2022-11-11T00:31:02.618Z,9.07
2022-11-11T00:33:48.542Z,8.91
2022-11-11T00:36:34.307Z,9.43
2022-11-11T00:39:20.218Z,9.48
2022-11-11T00:42:05.895Z,9.43
2022-11-11T00:44:51.479Z,9.31
2022-11-11T00:47:56.120Z,9.20
2022-11-11T00:51:00.439Z,9.82
2022-11-11T00:53:46.329Z,10.03
2022-11-11T00:56:32.378Z,9.78
2022-11-11T00:59:18.283Z,9.49
2022-11-11T01:02:04.043Z,9.25
2022-11-11T01:04:50.158Z,9.64
2022-11-11T01:07:36.017Z,9.92
2022-11-11T01:10:42.388Z,9.75
2022-11-11T01:13:32.649Z,9.37
2022-11-11T01:16:21.458Z,9.23
2022-11-11T01:19:07.116Z,9.58
2022-11-11T01:21:52.826Z,9.76
2022-11-11T01:24:39.106Z,9.55
2022-11-11T01:27:24.799Z,9.23
2022-11-11T01:30:14.286Z,9.11
2022-11-11T01:33:00.797Z,9.65
2022-11-11T01:35:46.567Z,9.72
2022-11-11T01:38:32.468Z,9.51
2022-11-11T01:41:36.876Z,9.31
2022-11-11T01:44:55.614Z,9.20
2022-11-11T01:48:22.954Z,9.57
2022-11-11T01:51:06.334Z,9.40
2022-11-11T01:53:56.147Z,9.05
2022-11-11T01:56:42.790Z,8.91
2022-11-11T01:59:29.116Z,9.30
2022-11-11T02:02:23.861Z,9.42
2022-11-11T02:05:31.409Z,9.18
2022-11-11T02:08:32.729Z,9.03
2022-11-11T02:11:39.109Z,9.13
2022-11-11T02:14:37.270Z,9.44
2022-11-11T02:17:23.965Z,9.12
2022-11-11T02:20:10.627Z,8.93
2022-11-11T02:23:23.492Z,9.04
2022-11-11T02:26:09.768Z,9.42
2022-11-11T02:28:55.706Z,9.21
2022-11-11T02:31:41.514Z,9.01
2022-11-11T02:34:31.775Z,8.92
2022-11-11T02:37:21.061Z,9.28
2022-11-11T02:40:09.197Z,9.44
2022-11-11T02:42:54.889Z,9.31
2022-11-11T02:45:40.413Z,9.06
2022-11-11T02:48:26.211Z,9.17
2022-11-11T02:51:12.080Z,9.52
2022-11-11T02:53:59.230Z,9.48
2022-11-11T02:57:04.024Z,9.23
2022-11-11T02:59:49.747Z,9.06
2022-11-11T03:02:36.022Z,9.61
2022-11-11T03:05:21.661Z,9.46
2022-11-11T03:08:07.630Z,9.43
2022-11-11T03:10:53.606Z,9.25
2022-11-11T03:13:39.390Z,9.02
2022-11-11T03:16:44.053Z,9.55
2022-11-11T03:19:30.195Z,9.52
2022-11-11T03:25:40.394Z,8.97
2022-11-11T03:28:26.264Z,9.37
2022-11-11T03:31:11.941Z,9.64
2022-11-11T03:34:17.572Z,9.45
2022-11-11T03:37:25.988Z,9.21
2022-11-11T03:40:12.487Z,9.17
2022-11-11T03:43:03.908Z,9.49
2022-11-11T03:45:51.633Z,9.56
2022-11-11T03:48:37.432Z,9.15
2022-11-11T03:51:22.910Z,9.00
2022-11-11T03:54:08.398Z,9.11
2022-11-11T03:57:14.245Z,9.41
2022-11-11T03:59:59.943Z,9.31
2022-11-11T04:03:04.559Z,9.13
2022-11-11T04:06:09.154Z,8.99
2022-11-11T04:09:13.546Z,9.49
2022-11-11T04:11:59.215Z,9.48
2022-11-11T04:15:03.617Z,9.32
2022-11-11T04:17:49.316Z,8.94
2022-11-11T04:20:53.825Z,9.10
2022-11-11T04:23:39.647Z,9.42
2022-11-11T04:26:25.320Z,9.23
2022-11-11T04:29:29.603Z,9.11
2022-11-11T04:32:35.370Z,8.93
2022-11-11T04:35:21.050Z,9.28
2022-11-11T04:38:27.023Z,9.41
2022-11-11T04:41:13.309Z,9.13
2022-11-11T04:44:17.533Z,8.94
2022-11-11T04:47:03.147Z,9.07
2022-11-11T04:49:48.696Z,9.30
2022-11-11T04:52:34.321Z,9.15
2022-11-11T04:55:38.797Z,8.89
2022-11-11T04:58:25.796Z,8.81
2022-11-11T05:01:11.152Z,9.30
2022-11-11T05:03:57.082Z,9.30
2022-11-11T05:07:01.672Z,9.03
2022-11-11T05:09:47.097Z,8.89
2022-11-11T05:12:32.684Z,9.16
2022-11-11T05:15:37.302Z,9.59
2022-11-11T05:18:41.715Z,9.45
2022-11-11T05:21:28.686Z,9.19
2022-11-11T05:24:33.163Z,9.01
2022-11-11T05:27:19.076Z,9.48
2022-11-11T05:30:05.826Z,9.55
2022-11-11T05:32:51.340Z,9.43
2022-11-11T05:35:37.042Z,9.14
2022-11-11T05:38:22.817Z,8.80
2022-11-11T05:41:08.752Z,9.35
2022-11-11T05:43:54.614Z,9.52
2022-11-11T05:46:40.122Z,9.48
2022-11-11T05:49:26.158Z,9.26
2022-11-11T05:52:12.661Z,9.09
2022-11-11T05:54:58.552Z,9.39
2022-11-11T05:57:44.870Z,9.61
2022-11-11T06:00:30.773Z,9.52
2022-11-11T06:03:16.727Z,9.33
2022-11-11T06:06:02.521Z,9.05
2022-11-11T06:08:48.199Z,9.42
2022-11-11T06:11:33.993Z,9.51
2022-11-11T06:14:19.591Z,9.39
2022-11-11T06:17:05.208Z,9.30
2022-11-11T06:19:50.834Z,9.14
2022-11-11T06:22:55.361Z,9.56
2022-11-11T06:25:59.990Z,9.82
2022-11-11T06:28:53.403Z,9.35
2022-11-11T06:31:39.242Z,9.31
2022-11-11T06:34:24.822Z,9.11
2022-11-11T06:37:10.607Z,9.47
2022-11-11T06:39:56.145Z,9.70
2022-11-11T06:42:41.723Z,9.51
2022-11-11T06:45:29.091Z,9.10
2022-11-11T06:48:14.807Z,9.12
2022-11-11T06:51:05.339Z,9.42
2022-11-11T06:53:51.693Z,9.63
2022-11-11T06:56:37.320Z,9.43
2022-11-11T06:59:23.146Z,9.22
2022-11-11T07:02:14.983Z,9.09
2022-11-11T07:05:00.893Z,9.58
2022-11-11T07:07:46.466Z,9.66
2022-11-11T07:10:32.781Z,9.57
2022-11-11T07:13:18.844Z,9.34
2022-11-11T07:16:04.629Z,9.38
2022-11-11T07:18:50.517Z,9.71
2022-11-11T07:21:36.204Z,9.83
2022-11-11T07:24:21.904Z,9.52
2022-11-11T07:27:07.572Z,9.44
2022-11-11T07:29:53.272Z,9.45
2022-11-11T07:32:46.363Z,9.69
2022-11-11T07:35:32.134Z,9.55
2022-11-11T07:38:17.919Z,9.42
2022-11-11T07:41:03.614Z,9.40
2022-11-11T07:43:49.160Z,9.38
2022-11-11T07:46:34.728Z,9.91
2022-11-11T07:49:20.409Z,9.90
2022-11-11T07:52:06.097Z,9.67
2022-11-11T07:54:51.678Z,9.45
2022-11-11T07:57:37.335Z,9.36
2022-11-11T08:00:23.458Z,9.65
2022-11-11T08:03:09.659Z,9.70
2022-11-11T08:05:56.569Z,9.50
2022-11-11T08:08:41.982Z,9.37
2022-11-11T08:11:46.671Z,9.57
2022-11-11T08:14:32.572Z,9.67
2022-11-11T08:17:18.147Z,9.62
2022-11-11T08:20:04.249Z,9.32
2022-11-11T08:23:16.973Z,9.24
2022-11-11T08:26:06.268Z,9.67
2022-11-11T08:28:52.726Z,9.63
2022-11-11T08:31:39.447Z,9.57
2022-11-11T08:34:25.294Z,9.42
2022-11-11T08:37:10.962Z,9.48
2022-11-11T08:39:57.513Z,9.81
2022-11-11T08:42:43.144Z,9.89
2022-11-11T08:45:29.300Z,9.90
2022-11-11T08:48:14.788Z,9.44
2022-11-11T08:51:00.463Z,9.23
2022-11-11T08:53:46.137Z,9.50
2022-11-11T08:56:31.931Z,9.63
2022-11-11T08:59:17.605Z,9.58
2022-11-11T09:02:03.190Z,9.52
2022-11-11T09:04:53.025Z,9.37
2022-11-11T09:07:41.522Z,9.60
2022-11-11T09:10:27.131Z,9.99
2022-11-11T09:13:12.731Z,10.37
2022-11-11T09:15:59.911Z,10.59
2022-11-11T09:18:46.715Z,10.34
2022-11-11T09:21:32.605Z,10.22
2022-11-11T09:24:18.401Z,9.96
2022-11-11T09:27:04.081Z,9.69
2022-11-11T09:29:49.525Z,9.68
2022-11-11T09:32:35.580Z,10.26
2022-11-11T09:35:21.595Z,10.45
2022-11-11T09:38:07.062Z,10.54
2022-11-11T09:41:12.795Z,10.62
2022-11-11T09:44:00.505Z,10.75
2022-11-11T09:46:55.199Z,11.07
2022-11-11T09:49:44.114Z,10.98
2022-11-11T09:52:39.266Z,10.62
2022-11-11T09:55:32.196Z,10.24
2022-11-11T09:58:21.335Z,10.52
2022-11-11T10:01:11.294Z,10.70
2022-11-11T10:04:05.303Z,11.19
2022-11-11T10:06:52.454Z,11.59
2022-11-11T10:09:48.016Z,11.75
2022-11-11T10:12:43.532Z,11.75
2022-11-11T10:15:47.303Z,12.02
2022-11-11T10:18:48.552Z,12.09
2022-11-11T10:22:11.876Z,12.29
2022-11-11T10:25:17.063Z,12.43
2022-11-11T10:28:02.643Z,12.47
2022-11-11T10:30:49.048Z,12.21
2022-11-11T10:33:57.691Z,12.30
2022-11-11T10:36:54.589Z,12.19
2022-11-11T10:40:11.435Z,12.43
2022-11-11T10:42:57.322Z,12.30
2022-11-11T10:45:50.335Z,11.84
2022-11-11T10:48:47.597Z,11.13
2022-11-11T10:51:37.500Z,10.74
2022-11-11T10:54:26.848Z,10.71
2022-11-11T10:57:22.912Z,10.25
2022-11-11T11:00:10.497Z,10.32
2022-11-11T11:03:02.479Z,10.16
2022-11-11T11:06:04.051Z,10.08
2022-11-11T11:08:54.760Z,9.99
2022-11-11T11:11:43.198Z,10.04
2022-11-11T11:14:37.826Z,9.92
2022-11-11T11:17:30.703Z,9.92
2022-11-11T11:20:20.200Z,9.88
2022-11-11T11:23:05.576Z,10.68
2022-11-11T11:25:57.009Z,11.52
2022-11-11T11:28:59.583Z,11.34
2022-11-11T11:31:47.688Z,11.48
2022-11-11T11:34:46.721Z,10.88
2022-11-11T11:37:32.193Z,10.60
2022-11-11T11:40:17.700Z,10.76
2022-11-11T11:43:03.441Z,10.67
2022-11-11T11:45:55.520Z,10.59
2022-11-11T11:48:44.335Z,10.68
2022-11-11T11:51:36.193Z,10.35
2022-11-11T11:54:35.940Z,10.50
2022-11-11T11:57:33.447Z,10.68
2022-11-11T12:00:21.024Z,10.45
2022-11-11T12:03:17.389Z,10.30
2022-11-11T12:06:17.636Z,10.29
2022-11-11T12:09:09.245Z,10.31
2022-11-11T12:12:03.088Z,10.16
2022-11-11T12:15:11.668Z,10.15
2022-11-11T12:18:22.271Z,10.03
2022-11-11T12:21:19.015Z,9.94
2022-11-11T12:24:23.105Z,9.88
2022-11-11T12:27:36.255Z,10.23
2022-11-11T12:30:28.592Z,10.75
2022-11-11T12:33:20.144Z,10.64
2022-11-11T12:36:11.052Z,10.67
2022-11-11T12:39:02.797Z,10.47
2022-11-11T12:41:57.464Z,10.28
2022-11-11T12:45:09.268Z,10.32
2022-11-11T12:48:03.899Z,10.01
2022-11-11T12:51:12.102Z,9.77
2022-11-11T12:54:24.711Z,9.81
2022-11-11T12:57:16.060Z,10.36
2022-11-11T13:00:13.739Z,10.39
2022-11-11T13:03:10.438Z,10.03
2022-11-11T13:05:55.989Z,10.03
2022-11-11T13:09:09.337Z,9.93
2022-11-11T13:12:03.757Z,9.60
2022-11-11T13:14:57.088Z,9.66
2022-11-11T13:17:42.050Z,10.21
2022-11-11T13:20:36.606Z,10.18
2022-11-11T13:23:25.576Z,9.98
2022-11-11T13:26:34.269Z,9.79
2022-11-11T13:31:39.971Z,9.37
2022-11-11T13:34:25.881Z,9.08
2022-11-11T13:37:28.314Z,9.11
2022-11-11T13:40:38.074Z,9.54
2022-11-11T13:43:35.894Z,9.69
2022-11-11T13:46:44.495Z,9.47
2022-11-11T13:49:35.438Z,9.33
2022-11-11T13:52:28.162Z,9.08
2022-11-11T13:55:44.181Z,8.95
2022-11-11T13:58:35.167Z,8.97
2022-11-11T14:01:21.018Z,9.59
2022-11-11T14:04:08.309Z,9.74
2022-11-11T14:06:54.229Z,9.62
2022-11-11T14:09:57.493Z,9.45
2022-11-11T14:12:46.931Z,9.20
2022-11-11T14:15:37.091Z,8.99
2022-11-11T14:18:26.037Z,8.90
2022-11-11T14:21:11.693Z,9.49
2022-11-11T14:23:57.276Z,9.87
2022-11-11T14:26:43.081Z,9.85
2022-11-11T14:29:35.207Z,9.65
2022-11-11T14:32:45.539Z,9.37
2022-11-11T14:35:48.246Z,9.03
2022-11-11T14:38:43.139Z,8.71
2022-11-11T14:41:41.216Z,8.52
2022-11-11T14:44:26.835Z,9.16
2022-11-11T14:47:12.586Z,9.49
2022-11-11T14:49:59.857Z,9.33
2022-11-11T14:52:45.897Z,9.01
2022-11-11T14:55:33.917Z,8.72
2022-11-11T14:58:21.547Z,8.45
2022-11-11T15:01:07.418Z,8.21
2022-11-11T15:03:53.867Z,8.05
2022-11-11T15:06:44.291Z,8.63
2022-11-11T15:10:00.883Z,9.12
2022-11-11T15:13:05.697Z,9.01
2022-11-11T15:15:54.499Z,8.74
2022-11-11T15:19:03.171Z,8.51
2022-11-11T15:22:04.758Z,8.25
2022-11-11T15:25:11.412Z,8.05
2022-11-11T15:28:02.250Z,7.99
2022-11-11T15:31:28.221Z,8.78
2022-11-11T15:34:32.669Z,9.23
2022-11-11T15:37:19.404Z,9.08
2022-11-11T15:40:07.791Z,8.81
2022-11-11T15:42:53.299Z,8.57
2022-11-11T15:45:38.986Z,8.36
2022-11-11T15:48:27.757Z,8.16
2022-11-11T15:51:22.734Z,8.04
2022-11-11T15:54:10.430Z,8.75
2022-11-11T15:56:56.090Z,9.16
2022-11-11T15:59:42.067Z,9.00
2022-11-11T16:02:34.887Z,8.71
2022-11-11T16:05:24.892Z,8.44
2022-11-11T16:08:18.022Z,8.17
2022-11-11T16:11:03.937Z,7.91
2022-11-11T16:13:56.606Z,7.74
2022-11-11T16:16:43.836Z,8.42
2022-11-11T16:19:35.637Z,8.93
2022-11-11T16:22:26.338Z,8.86
2022-11-11T16:25:20.917Z,8.61
2022-11-11T16:28:06.411Z,8.32
2022-11-11T16:30:52.241Z,8.03
2022-11-11T16:33:37.875Z,7.77
2022-11-11T16:36:23.569Z,7.61
2022-11-11T16:39:22.084Z,8.29
2022-11-11T16:42:25.048Z,8.88
2022-11-11T16:45:21.573Z,8.73
2022-11-11T16:48:31.526Z,8.45
2022-11-11T16:51:18.948Z,8.19
2022-11-11T16:54:10.356Z,7.93
2022-11-11T16:56:57.484Z,7.76
2022-11-11T16:59:45.483Z,8.21
2022-11-11T17:02:31.309Z,8.29
2022-11-11T17:05:17.099Z,8.11
2022-11-11T17:08:28.080Z,7.94
2022-11-11T17:11:36.084Z,7.68
2022-11-11T17:14:21.987Z,7.49
2022-11-11T17:17:11.472Z,8.18
2022-11-11T17:19:57.920Z,8.67
2022-11-11T17:22:55.585Z,8.60
2022-11-11T17:25:41.305Z,8.30
2022-11-11T17:28:30.376Z,7.95
2022-11-11T17:31:16.666Z,7.69
2022-11-11T17:34:20.653Z,7.48
2022-11-11T17:37:06.221Z,7.40
2022-11-11T17:39:52.247Z,8.15
2022-11-11T17:42:38.035Z,8.69
2022-11-11T17:45:23.816Z,8.64
2022-11-11T17:48:10.365Z,8.39
2022-11-11T17:50:56.035Z,8.14
2022-11-11T17:53:41.695Z,7.92
2022-11-11T17:56:27.278Z,7.76
2022-11-11T17:59:12.956Z,8.36
2022-11-11T18:01:59.659Z,8.77
2022-11-11T18:04:45.360Z,8.73
2022-11-11T18:07:31.069Z,8.51
2022-11-11T18:10:16.865Z,8.24
2022-11-11T18:13:02.403Z,7.99
2022-11-11T18:15:48.290Z,7.90
2022-11-11T18:18:34.382Z,8.48
2022-11-11T18:21:21.647Z,8.72
2022-11-11T18:24:08.793Z,8.55
2022-11-11T18:26:57.068Z,8.30
2022-11-11T18:29:44.717Z,8.05
2022-11-11T18:32:30.798Z,7.88
2022-11-11T18:35:18.933Z,8.44
2022-11-11T18:38:04.615Z,8.78
2022-11-11T18:40:50.212Z,8.63
2022-11-11T18:43:44.795Z,8.49
2022-11-11T18:46:30.916Z,8.27
2022-11-11T18:49:16.535Z,8.01
2022-11-11T18:52:02.357Z,8.19
2022-11-11T18:54:47.937Z,8.75
2022-11-11T18:57:33.534Z,8.73
2022-11-11T19:00:20.342Z,8.35
2022-11-11T19:03:06.002Z,7.95
2022-11-11T19:05:51.695Z,7.65
2022-11-11T19:08:37.897Z,7.98
2022-11-11T19:11:23.685Z,8.17
2022-11-11T19:14:10.080Z,8.00
2022-11-11T19:16:55.914Z,7.69
2022-11-11T19:19:41.660Z,7.40
2022-11-11T19:22:27.541Z,7.32
2022-11-11T19:25:13.326Z,7.96
2022-11-11T19:27:59.256Z,8.24
2022-11-11T19:30:44.725Z,8.14
2022-11-11T19:33:33.251Z,7.87
